sensor_id;sensor_type;location;lat;lon;timestamp;pressure;altitude;pressure_sealevel;temperature;humidity
79780;BME280;69258;52.050;10.334;2023-04-19T00:14:43;100820.09;;;21.24;45.05
79780;BME280;69258;52.050;10.334;2023-04-19T00:29:44;100822.59;;;21.26;44.83
79780;BME280;69258;52.050;10.334;2023-04-19T00:44:46;100820.75;;;21.26;44.65
79780;BME280;69258;52.050;10.334;2023-04-19T00:59:48;100825.09;;;21.27;44.63
79780;BME280;69258;52.050;10.334;2023-04-19T01:14:49;100826.94;;;21.27;44.30
79780;BME280;69258;52.050;10.334;2023-04-19T01:29:51;100827.75;;;21.27;44.05
79780;BME280;69258;52.050;10.334;2023-04-19T01:44:53;100843.69;;;21.29;43.84
79780;BME280;69258;52.050;10.334;2023-04-19T01:59:54;100828.59;;;21.28;43.88
79780;BME280;69258;52.050;10.334;2023-04-19T02:14:56;100817.72;;;21.29;43.58
79780;BME280;69258;52.050;10.334;2023-04-19T02:29:58;100821.41;;;21.28;43.50
79780;BME280;69258;52.050;10.334;2023-04-19T02:45:00;100825.75;;;21.29;43.57
79780;BME280;69258;52.050;10.334;2023-04-19T03:00:02;100823.06;;;21.29;42.92
79780;BME280;69258;52.050;10.334;2023-04-19T03:15:05;100805.94;;;21.30;42.87
79780;BME280;69258;52.050;10.334;2023-04-19T03:30:07;100813.34;;;21.28;43.03
79780;BME280;69258;52.050;10.334;2023-04-19T03:45:09;100797.09;;;21.30;42.78
79780;BME280;69258;52.050;10.334;2023-04-19T04:00:11;100800.59;;;21.30;42.60
79780;BME280;69258;52.050;10.334;2023-04-19T04:15:13;100802.47;;;21.30;42.23
79780;BME280;69258;52.050;10.334;2023-04-19T04:30:15;100796.06;;;21.31;42.52
79780;BME280;69258;52.050;10.334;2023-04-19T04:45:17;100795.88;;;21.32;42.71
79780;BME280;69258;52.050;10.334;2023-04-19T05:00:19;100801.88;;;21.34;42.66
79780;BME280;69258;52.050;10.334;2023-04-19T05:15:20;100805.25;;;21.36;42.71
79780;BME280;69258;52.050;10.334;2023-04-19T05:30:22;100808.47;;;21.46;44.44
79780;BME280;69258;52.050;10.334;2023-04-19T05:45:24;100806.47;;;21.48;43.75
79780;BME280;69258;52.050;10.334;2023-04-19T06:00:26;100798.56;;;21.32;42.77
79780;BME280;69258;52.050;10.334;2023-04-19T06:15:28;100800.34;;;21.40;42.58
79780;BME280;69258;52.050;10.334;2023-04-19T06:30:29;100791.28;;;21.41;42.36
79780;BME280;69258;52.050;10.334;2023-04-19T06:45:31;100792.94;;;21.42;42.45
79780;BME280;69258;52.050;10.334;2023-04-19T07:00:33;100788.41;;;21.42;42.10
79780;BME280;69258;52.050;10.334;2023-04-19T07:15:34;100771.78;;;21.47;42.63
79780;BME280;69258;52.050;10.334;2023-04-19T07:30:36;100773.44;;;21.48;42.90
79780;BME280;69258;52.050;10.334;2023-04-19T07:45:38;100761.50;;;21.50;42.34
79780;BME280;69258;52.050;10.334;2023-04-19T08:00:40;100749.56;;;21.53;42.16
79780;BME280;69258;52.050;10.334;2023-04-19T08:15:41;100738.69;;;21.54;43.10
79780;BME280;69258;52.050;10.334;2023-04-19T08:30:46;100735.63;;;21.57;43.40
79780;BME280;69258;52.050;10.334;2023-04-19T08:45:48;100718.53;;;21.58;43.27
79780;BME280;69258;52.050;10.334;2023-04-19T09:00:51;100699.38;;;21.61;43.63
79780;BME280;69258;52.050;10.334;2023-04-19T09:15:53;100677.53;;;21.65;43.73
79780;BME280;69258;52.050;10.334;2023-04-19T09:30:55;100656.53;;;21.68;43.32
79780;BME280;69258;52.050;10.334;2023-04-19T09:46:34;100642.75;;;21.71;43.54
79780;BME280;69258;52.050;10.334;2023-04-19T10:01:55;100615.56;;;21.74;44.03
79780;BME280;69258;52.050;10.334;2023-04-19T10:16:57;100609.63;;;21.79;43.91
79780;BME280;69258;52.050;10.334;2023-04-19T10:31:58;100585.09;;;21.82;44.24
79780;BME280;69258;52.050;10.334;2023-04-19T10:47:00;100557.03;;;21.84;43.46
79780;BME280;69258;52.050;10.334;2023-04-19T11:02:25;100531.66;;;21.87;43.96
79780;BME280;69258;52.050;10.334;2023-04-19T11:17:28;100490.22;;;21.89;43.79
79780;BME280;69258;52.050;10.334;2023-04-19T11:32:30;100481.81;;;21.92;44.13
79780;BME280;69258;52.050;10.334;2023-04-19T11:47:32;100470.69;;;21.95;43.62
79780;BME280;69258;52.050;10.334;2023-04-19T12:02:41;100455.03;;;21.99;44.27
79780;BME280;69258;52.050;10.334;2023-04-19T12:18:00;100442.25;;;22.01;44.00
79780;BME280;69258;52.050;10.334;2023-04-19T12:33:03;100432.16;;;22.03;43.62
79780;BME280;69258;52.050;10.334;2023-04-19T12:48:05;100420.84;;;22.07;44.01
79780;BME280;69258;52.050;10.334;2023-04-19T13:03:07;100418.97;;;22.08;44.02
79780;BME280;69258;52.050;10.334;2023-04-19T13:18:09;100387.22;;;22.12;44.42
79780;BME280;69258;52.050;10.334;2023-04-19T13:33:11;100374.63;;;22.12;44.18
79780;BME280;69258;52.050;10.334;2023-04-19T13:48:12;100358.13;;;22.15;44.22
79780;BME280;69258;52.050;10.334;2023-04-19T14:03:14;100341.81;;;22.17;44.68
79780;BME280;69258;52.050;10.334;2023-04-19T14:18:16;100337.06;;;22.19;44.31
79780;BME280;69258;52.050;10.334;2023-04-19T14:33:18;100331.50;;;22.20;43.87
79780;BME280;69258;52.050;10.334;2023-04-19T14:48:20;100320.78;;;22.20;44.18
79780;BME280;69258;52.050;10.334;2023-04-19T15:03:22;100311.66;;;22.21;43.99
79780;BME280;69258;52.050;10.334;2023-04-19T15:18:24;100302.78;;;22.21;44.43
79780;BME280;69258;52.050;10.334;2023-04-19T15:33:28;100290.00;;;22.23;44.57
79780;BME280;69258;52.050;10.334;2023-04-19T15:48:32;100277.41;;;22.23;44.28
79780;BME280;69258;52.050;10.334;2023-04-19T16:03:34;100284.63;;;22.23;44.24
79780;BME280;69258;52.050;10.334;2023-04-19T16:18:36;100271.22;;;22.23;44.52
79780;BME280;69258;52.050;10.334;2023-04-19T16:33:37;100273.06;;;22.22;44.47
79780;BME280;69258;52.050;10.334;2023-04-19T16:48:39;100267.88;;;22.21;44.20
79780;BME280;69258;52.050;10.334;2023-04-19T17:03:41;100257.38;;;22.19;44.12
79780;BME280;69258;52.050;10.334;2023-04-19T17:18:45;100254.03;;;22.17;44.24
79780;BME280;69258;52.050;10.334;2023-04-19T17:33:47;100259.81;;;22.14;43.97
79780;BME280;69258;52.050;10.334;2023-04-19T17:48:49;100267.25;;;22.12;43.89
79780;BME280;69258;52.050;10.334;2023-04-19T18:03:51;100266.81;;;22.08;43.84
79780;BME280;69258;52.050;10.334;2023-04-19T18:18:53;100263.50;;;22.06;43.67
79780;BME280;69258;52.050;10.334;2023-04-19T18:33:55;100257.53;;;22.04;44.30
79780;BME280;69258;52.050;10.334;2023-04-19T18:48:56;100260.59;;;22.01;44.33
79780;BME280;69258;52.050;10.334;2023-04-19T19:03:58;100275.03;;;22.00;44.45
79780;BME280;69258;52.050;10.334;2023-04-19T19:19:20;100270.09;;;21.97;44.12
79780;BME280;69258;52.050;10.334;2023-04-19T19:34:22;100263.44;;;21.93;44.31
79780;BME280;69258;52.050;10.334;2023-04-19T19:49:30;100274.09;;;21.87;44.09
79780;BME280;69258;52.050;10.334;2023-04-19T20:04:53;100261.31;;;21.82;44.14
79780;BME280;69258;52.050;10.334;2023-04-19T20:19:55;100265.59;;;21.77;44.49
79780;BME280;69258;52.050;10.334;2023-04-19T20:34:57;100260.81;;;21.72;43.83
79780;BME280;69258;52.050;10.334;2023-04-19T20:49:58;100241.59;;;21.69;44.56
79780;BME280;69258;52.050;10.334;2023-04-19T21:05:00;100209.81;;;21.66;44.33
79780;BME280;69258;52.050;10.334;2023-04-19T21:20:02;100194.31;;;21.61;44.19
79780;BME280;69258;52.050;10.334;2023-04-19T21:35:04;100177.78;;;21.57;44.27
79780;BME280;69258;52.050;10.334;2023-04-19T21:50:06;100177.94;;;21.49;44.30
79780;BME280;69258;52.050;10.334;2023-04-19T22:05:08;100163.06;;;21.40;44.49
79780;BME280;69258;52.050;10.334;2023-04-19T22:20:10;100139.72;;;21.34;44.27
79780;BME280;69258;52.050;10.334;2023-04-19T22:35:12;100125.06;;;21.30;44.21
79780;BME280;69258;52.050;10.334;2023-04-19T22:50:14;100102.56;;;21.25;43.80
79780;BME280;69258;52.050;10.334;2023-04-19T23:05:16;100093.25;;;21.21;43.79
79780;BME280;69258;52.050;10.334;2023-04-19T23:20:18;100076.94;;;21.16;44.36
79780;BME280;69258;52.050;10.334;2023-04-19T23:35:19;100079.19;;;21.12;43.90
79780;BME280;69258;52.050;10.334;2023-04-19T23:50:21;100062.66;;;21.08;44.07
